Terminal Aerodrome Forecast
Issued by NWS

Current Version | Previous Version | Graphics & Text | Print | Product List | Glossary On
Versions: 1 2 3 4 5 6 7 8 9 10 11 12 13 14 15 16 17 18 19 20 21 22 23 24 25
000
FTUS41 KRNK 272321
TAFLWB
TAF
KLWB 272321Z 2800/2824 00000KT P6SM -SHRA VCTS SCT035 OVC050CB
     FM280300 VRB03KT P6SM VCSH OVC040
     FM280700 00000KT 2SM BR OVC007
     FM281100 00000KT 3SM SHRA BR VCSH OVC005
     FM281600 18003KT P6SM OVC015
     FM282100 25004KT P6SM -SHRA OVC025=

USA.gov is the U.S. government's official web portal to all federal, state and local government web resources and services.